Shearwater — 3ESK5 — position and weather

sailwx.info

Track history (hours):
 
Tides and Currents Weather Stations Pressure Air Temp Water Temp Dewpoint Dewpoint Depression Visibility Wind Speed Wind Dir Waves Ship Positions

Shearwater

Last reported at 2014-Jun-30 12:31 UTC. Time now 2014-Sep-22 06:15 UTC.
Position N 01°14' E 104°06'.
Warning: this ship's position is months out of date.

Length 210 m; draft 10.2 m.

Type: Ship. MMSI: 370338000.

Date/timePositionNaut miles runAvg speedWind from/ knotsBaromVisibWave heightAir tempDewpointWater temp
2014-Jun-30 12:31N 01°14' E 104°06'6 4.7
2014-Jun-30 11:12N 01°17' E 104°00'0 0.2
2014-Jun-30 10:30N 01°17' E 104°00'0 0.0
2014-Jun-30 09:18N 01°17' E 104°00'0 0.0
2014-Jun-30 05:24N 01°17' E 104°01'0 0.0
2014-Jun-29 20:32N 01°17' E 104°01'5 4.7
2014-Jun-29 19:33N 01°14' E 103°58'5 5.4
2014-Jun-29 18:33N 01°12' E 103°52'9 9.3
2014-Jun-29 17:33N 01°07' E 103°45'10 9.6
2014-Jun-29 16:33N 01°05' E 103°36'1212.0
2014-Jun-29 15:33N 01°11' E 103°25'  
Track history (hours):
 
Tides and Currents Weather Stations Pressure Air Temp Water Temp Dewpoint Dewpoint Depression Visibility Wind Speed Wind Dir Waves Ship Positions

Shearwater

Last reported at 2014-Jun-30 12:31 UTC. Time now 2014-Sep-22 06:15 UTC.
Position N 01°14' E 104°06'.
Warning: this ship's position is months out of date.

Length 210 m; draft 10.2 m.

Type: Ship. MMSI: 370338000.

Date/timePositionNaut miles runAvg speedWind from/ knotsBaromVisibWave heightAir tempDewpointWater temp
2014-Jun-30 12:31N 01°14' E 104°06'6 4.7
2014-Jun-30 11:12N 01°17' E 104°00'0 0.2
2014-Jun-30 10:30N 01°17' E 104°00'0 0.0
2014-Jun-30 09:18N 01°17' E 104°00'0 0.0
2014-Jun-30 05:24N 01°17' E 104°01'0 0.0
2014-Jun-29 20:32N 01°17' E 104°01'5 4.7
2014-Jun-29 19:33N 01°14' E 103°58'5 5.4
2014-Jun-29 18:33N 01°12' E 103°52'9 9.3
2014-Jun-29 17:33N 01°07' E 103°45'10 9.6
2014-Jun-29 16:33N 01°05' E 103°36'1212.0
2014-Jun-29 15:33N 01°11' E 103°25'  

Dump ship's entire track history